sensor_id;sensor_type;location;lat;lon;timestamp;P1;durP1;ratioP1;P2;durP2;ratioP2
6671;SDS011;3372;48.690;12.362;2022-10-16T00:01:22;3.93;;;3.07;;
6671;SDS011;3372;48.690;12.362;2022-10-16T00:03:49;3.80;;;3.13;;
6671;SDS011;3372;48.690;12.362;2022-10-16T00:06:16;4.00;;;2.90;;
6671;SDS011;3372;48.690;12.362;2022-10-16T00:08:43;6.43;;;2.97;;
6671;SDS011;3372;48.690;12.362;2022-10-16T00:11:10;4.20;;;3.10;;
6671;SDS011;3372;48.690;12.362;2022-10-16T00:13:40;3.37;;;3.00;;
6671;SDS011;3372;48.690;12.362;2022-10-16T00:16:07;4.80;;;3.20;;
6671;SDS011;3372;48.690;12.362;2022-10-16T00:18:34;5.40;;;2.70;;
6671;SDS011;3372;48.690;12.362;2022-10-16T00:21:04;3.80;;;2.20;;
6671;SDS011;3372;48.690;12.362;2022-10-16T00:23:31;4.50;;;3.17;;
6671;SDS011;3372;48.690;12.362;2022-10-16T00:25:58;7.00;;;3.00;;
6671;SDS011;3372;48.690;12.362;2022-10-16T00:28:26;4.40;;;2.90;;
6671;SDS011;3372;48.690;12.362;2022-10-16T00:30:52;9.53;;;7.03;;
6671;SDS011;3372;48.690;12.362;2022-10-16T00:33:19;5.63;;;3.70;;
6671;SDS011;3372;48.690;12.362;2022-10-16T00:35:44;11.43;;;6.67;;
6671;SDS011;3372;48.690;12.362;2022-10-16T00:38:10;5.30;;;4.40;;
6671;SDS011;3372;48.690;12.362;2022-10-16T00:40:36;5.10;;;3.50;;
6671;SDS011;3372;48.690;12.362;2022-10-16T00:43:02;6.03;;;3.17;;
6671;SDS011;3372;48.690;12.362;2022-10-16T00:45:27;8.50;;;3.80;;
6671;SDS011;3372;48.690;12.362;2022-10-16T00:47:53;6.20;;;3.70;;
6671;SDS011;3372;48.690;12.362;2022-10-16T00:50:28;9.07;;;3.87;;
6671;SDS011;3372;48.690;12.362;2022-10-16T00:52:56;4.53;;;2.90;;
6671;SDS011;3372;48.690;12.362;2022-10-16T00:55:23;4.13;;;3.27;;
6671;SDS011;3372;48.690;12.362;2022-10-16T00:57:49;6.80;;;2.73;;
6671;SDS011;3372;48.690;12.362;2022-10-16T01:00:17;6.27;;;4.00;;
6671;SDS011;3372;48.690;12.362;2022-10-16T01:02:56;8.63;;;2.97;;
6671;SDS011;3372;48.690;12.362;2022-10-16T01:05:26;5.93;;;2.70;;
6671;SDS011;3372;48.690;12.362;2022-10-16T01:08:15;5.13;;;2.70;;
6671;SDS011;3372;48.690;12.362;2022-10-16T01:17:03;7.70;;;2.90;;
6671;SDS011;3372;48.690;12.362;2022-10-16T01:23:14;5.30;;;2.80;;
6671;SDS011;3372;48.690;12.362;2022-10-16T01:25:48;4.23;;;2.90;;
6671;SDS011;3372;48.690;12.362;2022-10-16T01:28:18;5.90;;;3.23;;
6671;SDS011;3372;48.690;12.362;2022-10-16T01:30:49;5.10;;;2.30;;
6671;SDS011;3372;48.690;12.362;2022-10-16T01:33:21;5.57;;;2.93;;
6671;SDS011;3372;48.690;12.362;2022-10-16T01:35:54;4.83;;;2.90;;
6671;SDS011;3372;48.690;12.362;2022-10-16T01:38:29;3.80;;;2.57;;
6671;SDS011;3372;48.690;12.362;2022-10-16T01:41:09;5.17;;;2.80;;
6671;SDS011;3372;48.690;12.362;2022-10-16T01:43:53;7.00;;;2.80;;
6671;SDS011;3372;48.690;12.362;2022-10-16T01:46:26;5.20;;;4.10;;
6671;SDS011;3372;48.690;12.362;2022-10-16T01:48:53;6.57;;;3.63;;
6671;SDS011;3372;48.690;12.362;2022-10-16T01:51:20;7.30;;;3.37;;
6671;SDS011;3372;48.690;12.362;2022-10-16T01:53:49;6.70;;;3.27;;
6671;SDS011;3372;48.690;12.362;2022-10-16T01:56:17;6.40;;;3.53;;
6671;SDS011;3372;48.690;12.362;2022-10-16T01:58:49;5.93;;;2.57;;
6671;SDS011;3372;48.690;12.362;2022-10-16T02:01:19;3.57;;;3.10;;
6671;SDS011;3372;48.690;12.362;2022-10-16T02:03:48;13.10;;;3.90;;
6671;SDS011;3372;48.690;12.362;2022-10-16T02:06:17;4.50;;;2.80;;
6671;SDS011;3372;48.690;12.362;2022-10-16T02:08:42;8.27;;;3.53;;
6671;SDS011;3372;48.690;12.362;2022-10-16T02:11:09;7.13;;;3.17;;
6671;SDS011;3372;48.690;12.362;2022-10-16T02:16:35;4.93;;;2.90;;
6671;SDS011;3372;48.690;12.362;2022-10-16T02:19:08;6.50;;;2.90;;
6671;SDS011;3372;48.690;12.362;2022-10-16T02:24:19;4.60;;;2.77;;
6671;SDS011;3372;48.690;12.362;2022-10-16T02:29:27;6.03;;;2.80;;
6671;SDS011;3372;48.690;12.362;2022-10-16T02:31:57;4.03;;;2.60;;
6671;SDS011;3372;48.690;12.362;2022-10-16T02:34:26;5.57;;;3.00;;
6671;SDS011;3372;48.690;12.362;2022-10-16T02:36:55;5.20;;;2.70;;
6671;SDS011;3372;48.690;12.362;2022-10-16T02:39:22;5.30;;;3.20;;
6671;SDS011;3372;48.690;12.362;2022-10-16T02:41:48;4.37;;;2.87;;
6671;SDS011;3372;48.690;12.362;2022-10-16T02:44:14;7.77;;;3.07;;
6671;SDS011;3372;48.690;12.362;2022-10-16T02:46:39;5.10;;;3.10;;
6671;SDS011;3372;48.690;12.362;2022-10-16T02:49:05;4.50;;;3.07;;
6671;SDS011;3372;48.690;12.362;2022-10-16T02:51:30;6.17;;;2.87;;
6671;SDS011;3372;48.690;12.362;2022-10-16T02:53:56;3.70;;;3.03;;
6671;SDS011;3372;48.690;12.362;2022-10-16T02:56:22;4.20;;;3.10;;
6671;SDS011;3372;48.690;12.362;2022-10-16T02:58:47;4.07;;;3.13;;
6671;SDS011;3372;48.690;12.362;2022-10-16T03:01:13;4.83;;;3.40;;
6671;SDS011;3372;48.690;12.362;2022-10-16T03:03:41;5.43;;;3.87;;
6671;SDS011;3372;48.690;12.362;2022-10-16T03:06:07;6.30;;;4.80;;
6671;SDS011;3372;48.690;12.362;2022-10-16T03:08:32;6.00;;;4.40;;
6671;SDS011;3372;48.690;12.362;2022-10-16T03:10:58;5.43;;;4.10;;
6671;SDS011;3372;48.690;12.362;2022-10-16T03:13:23;5.73;;;4.40;;
6671;SDS011;3372;48.690;12.362;2022-10-16T03:15:49;4.70;;;4.20;;
6671;SDS011;3372;48.690;12.362;2022-10-16T03:18:15;5.40;;;3.80;;
6671;SDS011;3372;48.690;12.362;2022-10-16T03:20:40;5.53;;;3.60;;
6671;SDS011;3372;48.690;12.362;2022-10-16T03:23:07;5.87;;;4.10;;
6671;SDS011;3372;48.690;12.362;2022-10-16T03:25:33;4.87;;;3.70;;
6671;SDS011;3372;48.690;12.362;2022-10-16T03:27:59;5.87;;;3.50;;
6671;SDS011;3372;48.690;12.362;2022-10-16T03:30:24;3.63;;;3.30;;
6671;SDS011;3372;48.690;12.362;2022-10-16T03:32:50;5.53;;;4.33;;
6671;SDS011;3372;48.690;12.362;2022-10-16T03:35:19;4.10;;;3.40;;
6671;SDS011;3372;48.690;12.362;2022-10-16T03:37:45;5.70;;;3.60;;
6671;SDS011;3372;48.690;12.362;2022-10-16T03:40:10;5.97;;;4.30;;
6671;SDS011;3372;48.690;12.362;2022-10-16T03:42:36;5.00;;;4.20;;
6671;SDS011;3372;48.690;12.362;2022-10-16T03:45:02;5.13;;;3.90;;
6671;SDS011;3372;48.690;12.362;2022-10-16T03:47:28;9.93;;;4.70;;
6671;SDS011;3372;48.690;12.362;2022-10-16T03:49:53;4.80;;;3.83;;
6671;SDS011;3372;48.690;12.362;2022-10-16T03:52:19;5.13;;;3.90;;
6671;SDS011;3372;48.690;12.362;2022-10-16T03:54:44;8.00;;;4.27;;
6671;SDS011;3372;48.690;12.362;2022-10-16T03:57:10;6.40;;;3.60;;
6671;SDS011;3372;48.690;12.362;2022-10-16T03:59:35;6.73;;;4.30;;
6671;SDS011;3372;48.690;12.362;2022-10-16T04:02:01;5.60;;;4.00;;
6671;SDS011;3372;48.690;12.362;2022-10-16T04:04:26;8.40;;;4.50;;
6671;SDS011;3372;48.690;12.362;2022-10-16T04:06:52;4.60;;;4.10;;
6671;SDS011;3372;48.690;12.362;2022-10-16T04:09:18;4.90;;;4.23;;
6671;SDS011;3372;48.690;12.362;2022-10-16T04:11:43;5.57;;;4.07;;
6671;SDS011;3372;48.690;12.362;2022-10-16T04:14:09;4.27;;;3.87;;
6671;SDS011;3372;48.690;12.362;2022-10-16T04:16:34;7.87;;;3.80;;
6671;SDS011;3372;48.690;12.362;2022-10-16T04:19:00;4.73;;;4.07;;
6671;SDS011;3372;48.690;12.362;2022-10-16T04:21:25;4.57;;;3.67;;
6671;SDS011;3372;48.690;12.362;2022-10-16T04:23:51;5.00;;;3.93;;
6671;SDS011;3372;48.690;12.362;2022-10-16T04:26:17;4.33;;;3.43;;
6671;SDS011;3372;48.690;12.362;2022-10-16T04:28:42;4.70;;;3.33;;
6671;SDS011;3372;48.690;12.362;2022-10-16T04:31:08;7.50;;;3.80;;
6671;SDS011;3372;48.690;12.362;2022-10-16T04:33:33;5.93;;;3.97;;
6671;SDS011;3372;48.690;12.362;2022-10-16T04:36:00;10.70;;;4.70;;
6671;SDS011;3372;48.690;12.362;2022-10-16T04:38:26;7.03;;;4.10;;
6671;SDS011;3372;48.690;12.362;2022-10-16T04:40:52;4.97;;;3.83;;
6671;SDS011;3372;48.690;12.362;2022-10-16T04:43:18;9.63;;;5.97;;
6671;SDS011;3372;48.690;12.362;2022-10-16T04:45:44;7.60;;;5.00;;
6671;SDS011;3372;48.690;12.362;2022-10-16T04:48:10;6.20;;;5.00;;
6671;SDS011;3372;48.690;12.362;2022-10-16T04:50:35;4.53;;;3.37;;
6671;SDS011;3372;48.690;12.362;2022-10-16T04:53:01;5.13;;;3.70;;
6671;SDS011;3372;48.690;12.362;2022-10-16T04:55:27;6.80;;;4.43;;
6671;SDS011;3372;48.690;12.362;2022-10-16T04:57:52;4.93;;;4.33;;
6671;SDS011;3372;48.690;12.362;2022-10-16T05:00:18;5.27;;;4.30;;
6671;SDS011;3372;48.690;12.362;2022-10-16T05:02:44;12.60;;;5.93;;
6671;SDS011;3372;48.690;12.362;2022-10-16T05:05:09;31.10;;;24.07;;
6671;SDS011;3372;48.690;12.362;2022-10-16T05:07:35;22.90;;;18.13;;
6671;SDS011;3372;48.690;12.362;2022-10-16T05:10:00;19.13;;;15.93;;
6671;SDS011;3372;48.690;12.362;2022-10-16T05:12:26;10.23;;;8.77;;
6671;SDS011;3372;48.690;12.362;2022-10-16T05:14:52;7.70;;;6.83;;
6671;SDS011;3372;48.690;12.362;2022-10-16T05:17:17;7.13;;;5.83;;
6671;SDS011;3372;48.690;12.362;2022-10-16T05:19:43;5.60;;;5.00;;
6671;SDS011;3372;48.690;12.362;2022-10-16T05:22:08;8.87;;;5.67;;
6671;SDS011;3372;48.690;12.362;2022-10-16T05:24:34;6.63;;;5.17;;
6671;SDS011;3372;48.690;12.362;2022-10-16T05:26:59;10.40;;;4.47;;
6671;SDS011;3372;48.690;12.362;2022-10-16T05:29:25;6.17;;;4.73;;
6671;SDS011;3372;48.690;12.362;2022-10-16T05:31:51;5.67;;;3.67;;
6671;SDS011;3372;48.690;12.362;2022-10-16T05:34:18;7.80;;;3.10;;
6671;SDS011;3372;48.690;12.362;2022-10-16T05:36:44;5.40;;;3.20;;
6671;SDS011;3372;48.690;12.362;2022-10-16T05:39:10;5.60;;;3.50;;
6671;SDS011;3372;48.690;12.362;2022-10-16T05:41:36;8.33;;;4.33;;
6671;SDS011;3372;48.690;12.362;2022-10-16T05:44:03;7.70;;;4.20;;
6671;SDS011;3372;48.690;12.362;2022-10-16T05:46:30;6.83;;;4.37;;
6671;SDS011;3372;48.690;12.362;2022-10-16T05:48:56;6.33;;;3.80;;
6671;SDS011;3372;48.690;12.362;2022-10-16T05:51:21;5.10;;;4.10;;
6671;SDS011;3372;48.690;12.362;2022-10-16T05:53:47;10.63;;;5.47;;
6671;SDS011;3372;48.690;12.362;2022-10-16T05:56:12;6.33;;;4.83;;
6671;SDS011;3372;48.690;12.362;2022-10-16T05:58:38;5.23;;;4.73;;
6671;SDS011;3372;48.690;12.362;2022-10-16T06:01:12;5.40;;;3.73;;
6671;SDS011;3372;48.690;12.362;2022-10-16T06:03:40;4.40;;;3.50;;
6671;SDS011;3372;48.690;12.362;2022-10-16T06:06:19;6.83;;;4.10;;
6671;SDS011;3372;48.690;12.362;2022-10-16T06:08:48;4.30;;;3.90;;
6671;SDS011;3372;48.690;12.362;2022-10-16T06:11:18;4.50;;;3.80;;
6671;SDS011;3372;48.690;12.362;2022-10-16T06:13:48;5.10;;;3.57;;
6671;SDS011;3372;48.690;12.362;2022-10-16T06:16:15;5.57;;;4.20;;
6671;SDS011;3372;48.690;12.362;2022-10-16T06:18:40;6.60;;;4.03;;
6671;SDS011;3372;48.690;12.362;2022-10-16T06:21:07;5.27;;;3.60;;
6671;SDS011;3372;48.690;12.362;2022-10-16T06:23:42;6.73;;;3.67;;
6671;SDS011;3372;48.690;12.362;2022-10-16T06:26:09;4.43;;;4.00;;
6671;SDS011;3372;48.690;12.362;2022-10-16T06:28:36;6.37;;;4.50;;
6671;SDS011;3372;48.690;12.362;2022-10-16T06:31:03;6.07;;;4.70;;
6671;SDS011;3372;48.690;12.362;2022-10-16T06:33:30;5.80;;;3.87;;
6671;SDS011;3372;48.690;12.362;2022-10-16T06:36:00;6.97;;;4.20;;
6671;SDS011;3372;48.690;12.362;2022-10-16T06:38:34;8.53;;;4.80;;
6671;SDS011;3372;48.690;12.362;2022-10-16T06:41:00;9.60;;;8.60;;
6671;SDS011;3372;48.690;12.362;2022-10-16T06:43:30;9.13;;;8.00;;
6671;SDS011;3372;48.690;12.362;2022-10-16T06:45:57;6.87;;;5.73;;
6671;SDS011;3372;48.690;12.362;2022-10-16T06:48:25;6.33;;;4.47;;
6671;SDS011;3372;48.690;12.362;2022-10-16T06:53:22;5.73;;;5.20;;
6671;SDS011;3372;48.690;12.362;2022-10-16T06:55:48;8.37;;;5.30;;
6671;SDS011;3372;48.690;12.362;2022-10-16T06:58:14;14.07;;;12.67;;
6671;SDS011;3372;48.690;12.362;2022-10-16T07:00:39;21.27;;;17.73;;
6671;SDS011;3372;48.690;12.362;2022-10-16T07:03:05;21.43;;;16.50;;
6671;SDS011;3372;48.690;12.362;2022-10-16T07:05:30;17.57;;;13.10;;
6671;SDS011;3372;48.690;12.362;2022-10-16T07:07:56;18.40;;;14.80;;
6671;SDS011;3372;48.690;12.362;2022-10-16T07:10:21;21.57;;;16.50;;
6671;SDS011;3372;48.690;12.362;2022-10-16T07:12:49;16.07;;;12.63;;
6671;SDS011;3372;48.690;12.362;2022-10-16T07:15:14;12.80;;;9.57;;
6671;SDS011;3372;48.690;12.362;2022-10-16T07:17:40;9.20;;;7.57;;
6671;SDS011;3372;48.690;12.362;2022-10-16T07:20:06;10.10;;;8.37;;
6671;SDS011;3372;48.690;12.362;2022-10-16T07:22:32;9.77;;;7.27;;
6671;SDS011;3372;48.690;12.362;2022-10-16T07:24:57;5.87;;;4.70;;
6671;SDS011;3372;48.690;12.362;2022-10-16T07:27:23;4.40;;;2.90;;
6671;SDS011;3372;48.690;12.362;2022-10-16T07:29:49;5.67;;;3.20;;
6671;SDS011;3372;48.690;12.362;2022-10-16T07:32:15;3.23;;;2.80;;
6671;SDS011;3372;48.690;12.362;2022-10-16T07:34:41;4.53;;;3.10;;
6671;SDS011;3372;48.690;12.362;2022-10-16T07:37:07;7.10;;;3.23;;
6671;SDS011;3372;48.690;12.362;2022-10-16T07:39:32;6.37;;;3.40;;
6671;SDS011;3372;48.690;12.362;2022-10-16T07:41:58;5.63;;;3.33;;
6671;SDS011;3372;48.690;12.362;2022-10-16T07:44:24;3.90;;;2.90;;
6671;SDS011;3372;48.690;12.362;2022-10-16T07:46:49;4.60;;;2.83;;
6671;SDS011;3372;48.690;12.362;2022-10-16T07:49:15;4.20;;;3.13;;
6671;SDS011;3372;48.690;12.362;2022-10-16T07:51:41;4.57;;;3.20;;
6671;SDS011;3372;48.690;12.362;2022-10-16T07:54:07;9.53;;;4.30;;
6671;SDS011;3372;48.690;12.362;2022-10-16T07:56:34;6.83;;;3.30;;
6671;SDS011;3372;48.690;12.362;2022-10-16T07:58:59;5.10;;;2.93;;
6671;SDS011;3372;48.690;12.362;2022-10-16T08:01:25;6.47;;;3.37;;
6671;SDS011;3372;48.690;12.362;2022-10-16T08:03:51;3.70;;;3.20;;
6671;SDS011;3372;48.690;12.362;2022-10-16T08:06:17;3.70;;;3.00;;
6671;SDS011;3372;48.690;12.362;2022-10-16T08:08:44;3.13;;;2.83;;
6671;SDS011;3372;48.690;12.362;2022-10-16T08:11:10;5.40;;;3.33;;
6671;SDS011;3372;48.690;12.362;2022-10-16T08:13:36;3.60;;;3.07;;
6671;SDS011;3372;48.690;12.362;2022-10-16T08:16:02;5.33;;;3.30;;
6671;SDS011;3372;48.690;12.362;2022-10-16T08:18:32;3.43;;;2.90;;
6671;SDS011;3372;48.690;12.362;2022-10-16T08:21:00;3.50;;;2.87;;
6671;SDS011;3372;48.690;12.362;2022-10-16T08:23:26;4.40;;;3.00;;
6671;SDS011;3372;48.690;12.362;2022-10-16T08:25:52;5.27;;;3.20;;
6671;SDS011;3372;48.690;12.362;2022-10-16T08:28:19;6.10;;;3.00;;
6671;SDS011;3372;48.690;12.362;2022-10-16T08:30:44;4.20;;;2.87;;
6671;SDS011;3372;48.690;12.362;2022-10-16T08:33:10;3.37;;;2.90;;
6671;SDS011;3372;48.690;12.362;2022-10-16T08:35:36;4.97;;;3.20;;
6671;SDS011;3372;48.690;12.362;2022-10-16T08:38:05;3.00;;;2.70;;
6671;SDS011;3372;48.690;12.362;2022-10-16T08:40:31;3.93;;;2.93;;
6671;SDS011;3372;48.690;12.362;2022-10-16T08:43:06;6.13;;;2.90;;
6671;SDS011;3372;48.690;12.362;2022-10-16T08:48:49;4.30;;;2.90;;
6671;SDS011;3372;48.690;12.362;2022-10-16T08:51:25;6.00;;;3.20;;
6671;SDS011;3372;48.690;12.362;2022-10-16T08:53:58;6.43;;;3.10;;
6671;SDS011;3372;48.690;12.362;2022-10-16T08:56:28;3.97;;;3.10;;
6671;SDS011;3372;48.690;12.362;2022-10-16T08:58:54;3.77;;;3.03;;
6671;SDS011;3372;48.690;12.362;2022-10-16T09:01:22;6.47;;;3.00;;
6671;SDS011;3372;48.690;12.362;2022-10-16T09:22:51;3.47;;;2.37;;
6671;SDS011;3372;48.690;12.362;2022-10-16T09:25:23;4.10;;;2.83;;
6671;SDS011;3372;48.690;12.362;2022-10-16T09:27:48;3.70;;;2.97;;
6671;SDS011;3372;48.690;12.362;2022-10-16T09:30:19;8.90;;;2.67;;
6671;SDS011;3372;48.690;12.362;2022-10-16T09:32:47;4.73;;;2.53;;
6671;SDS011;3372;48.690;12.362;2022-10-16T09:35:18;4.77;;;2.60;;
6671;SDS011;3372;48.690;12.362;2022-10-16T09:37:50;7.03;;;3.10;;
6671;SDS011;3372;48.690;12.362;2022-10-16T09:40:51;6.60;;;3.10;;
6671;SDS011;3372;48.690;12.362;2022-10-16T09:45:56;4.40;;;3.30;;
6671;SDS011;3372;48.690;12.362;2022-10-16T09:48:25;4.00;;;2.80;;
6671;SDS011;3372;48.690;12.362;2022-10-16T09:50:55;6.20;;;2.70;;
6671;SDS011;3372;48.690;12.362;2022-10-16T09:53:26;4.20;;;2.80;;
6671;SDS011;3372;48.690;12.362;2022-10-16T09:56:05;4.40;;;2.70;;
6671;SDS011;3372;48.690;12.362;2022-10-16T09:58:31;5.70;;;2.80;;
6671;SDS011;3372;48.690;12.362;2022-10-16T10:00:58;4.83;;;2.77;;
6671;SDS011;3372;48.690;12.362;2022-10-16T10:03:38;3.10;;;2.40;;
6671;SDS011;3372;48.690;12.362;2022-10-16T10:08:41;4.10;;;2.60;;
6671;SDS011;3372;48.690;12.362;2022-10-16T10:11:17;7.73;;;3.20;;
6671;SDS011;3372;48.690;12.362;2022-10-16T10:13:43;6.20;;;2.73;;
6671;SDS011;3372;48.690;12.362;2022-10-16T10:16:08;5.63;;;2.60;;
6671;SDS011;3372;48.690;12.362;2022-10-16T10:18:34;3.83;;;2.50;;
6671;SDS011;3372;48.690;12.362;2022-10-16T10:21:00;2.97;;;2.33;;
6671;SDS011;3372;48.690;12.362;2022-10-16T10:23:27;3.60;;;2.70;;
6671;SDS011;3372;48.690;12.362;2022-10-16T10:26:06;2.93;;;2.40;;
6671;SDS011;3372;48.690;12.362;2022-10-16T10:28:40;4.37;;;2.90;;
6671;SDS011;3372;48.690;12.362;2022-10-16T10:42:50;3.00;;;2.37;;
6671;SDS011;3372;48.690;12.362;2022-10-16T10:45:43;2.73;;;2.20;;
6671;SDS011;3372;48.690;12.362;2022-10-16T10:48:17;4.20;;;2.70;;
6671;SDS011;3372;48.690;12.362;2022-10-16T10:50:46;2.30;;;2.10;;
6671;SDS011;3372;48.690;12.362;2022-10-16T10:58:49;4.10;;;2.40;;
6671;SDS011;3372;48.690;12.362;2022-10-16T11:06:53;6.07;;;2.40;;
6671;SDS011;3372;48.690;12.362;2022-10-16T11:09:25;4.37;;;2.33;;
6671;SDS011;3372;48.690;12.362;2022-10-16T11:15:04;3.40;;;2.50;;
6671;SDS011;3372;48.690;12.362;2022-10-16T11:17:40;2.60;;;2.27;;
6671;SDS011;3372;48.690;12.362;2022-10-16T11:20:41;4.40;;;2.33;;
6671;SDS011;3372;48.690;12.362;2022-10-16T11:23:21;3.17;;;2.30;;
6671;SDS011;3372;48.690;12.362;2022-10-16T11:25:59;4.73;;;2.50;;
6671;SDS011;3372;48.690;12.362;2022-10-16T11:28:36;4.00;;;2.53;;
6671;SDS011;3372;48.690;12.362;2022-10-16T11:36:47;3.67;;;2.50;;
6671;SDS011;3372;48.690;12.362;2022-10-16T11:39:30;4.43;;;2.70;;
6671;SDS011;3372;48.690;12.362;2022-10-16T11:42:04;3.33;;;2.57;;
6671;SDS011;3372;48.690;12.362;2022-10-16T11:50:00;2.90;;;2.23;;
6671;SDS011;3372;48.690;12.362;2022-10-16T11:52:42;3.40;;;2.40;;
6671;SDS011;3372;48.690;12.362;2022-10-16T11:55:17;5.83;;;2.80;;
6671;SDS011;3372;48.690;12.362;2022-10-16T11:57:48;4.93;;;2.33;;
6671;SDS011;3372;48.690;12.362;2022-10-16T12:02:53;2.80;;;2.37;;
6671;SDS011;3372;48.690;12.362;2022-10-16T12:10:36;4.73;;;2.80;;
6671;SDS011;3372;48.690;12.362;2022-10-16T12:13:48;3.40;;;2.33;;
6671;SDS011;3372;48.690;12.362;2022-10-16T12:16:06;2.67;;;2.30;;
6671;SDS011;3372;48.690;12.362;2022-10-16T12:19:03;5.03;;;2.33;;
6671;SDS011;3372;48.690;12.362;2022-10-16T12:21:39;2.70;;;2.43;;
6671;SDS011;3372;48.690;12.362;2022-10-16T12:24:06;4.07;;;2.67;;
6671;SDS011;3372;48.690;12.362;2022-10-16T12:27:17;4.20;;;2.53;;
6671;SDS011;3372;48.690;12.362;2022-10-16T12:30:04;3.57;;;2.50;;
6671;SDS011;3372;48.690;12.362;2022-10-16T12:34:59;4.43;;;2.87;;
6671;SDS011;3372;48.690;12.362;2022-10-16T12:37:28;7.93;;;2.90;;
6671;SDS011;3372;48.690;12.362;2022-10-16T12:39:58;3.40;;;2.70;;
6671;SDS011;3372;48.690;12.362;2022-10-16T12:42:35;4.50;;;2.90;;
6671;SDS011;3372;48.690;12.362;2022-10-16T12:45:02;2.73;;;2.43;;
6671;SDS011;3372;48.690;12.362;2022-10-16T12:47:50;4.47;;;2.60;;
6671;SDS011;3372;48.690;12.362;2022-10-16T12:50:29;5.30;;;2.63;;
6671;SDS011;3372;48.690;12.362;2022-10-16T12:52:57;5.10;;;2.33;;
6671;SDS011;3372;48.690;12.362;2022-10-16T12:55:24;4.40;;;2.70;;
6671;SDS011;3372;48.690;12.362;2022-10-16T13:00:44;3.23;;;2.80;;
6671;SDS011;3372;48.690;12.362;2022-10-16T13:14:55;3.47;;;2.73;;
6671;SDS011;3372;48.690;12.362;2022-10-16T13:30:26;3.90;;;2.80;;
6671;SDS011;3372;48.690;12.362;2022-10-16T13:35:47;4.63;;;2.90;;
6671;SDS011;3372;48.690;12.362;2022-10-16T13:38:17;5.03;;;3.00;;
6671;SDS011;3372;48.690;12.362;2022-10-16T13:40:48;3.63;;;2.50;;
6671;SDS011;3372;48.690;12.362;2022-10-16T13:43:16;4.93;;;2.73;;
6671;SDS011;3372;48.690;12.362;2022-10-16T13:45:57;4.30;;;2.80;;
6671;SDS011;3372;48.690;12.362;2022-10-16T13:48:23;4.33;;;3.00;;
6671;SDS011;3372;48.690;12.362;2022-10-16T13:51:03;4.20;;;2.80;;
6671;SDS011;3372;48.690;12.362;2022-10-16T13:53:32;7.67;;;3.03;;
6671;SDS011;3372;48.690;12.362;2022-10-16T13:55:59;3.80;;;2.63;;
6671;SDS011;3372;48.690;12.362;2022-10-16T13:58:27;4.83;;;2.80;;
6671;SDS011;3372;48.690;12.362;2022-10-16T14:01:00;3.40;;;2.80;;
6671;SDS011;3372;48.690;12.362;2022-10-16T14:03:28;3.57;;;2.50;;
6671;SDS011;3372;48.690;12.362;2022-10-16T14:05:56;3.90;;;2.80;;
6671;SDS011;3372;48.690;12.362;2022-10-16T14:08:29;3.60;;;2.70;;
6671;SDS011;3372;48.690;12.362;2022-10-16T14:10:56;4.77;;;2.60;;
6671;SDS011;3372;48.690;12.362;2022-10-16T14:13:35;3.30;;;2.87;;
6671;SDS011;3372;48.690;12.362;2022-10-16T14:16:10;3.43;;;3.00;;
6671;SDS011;3372;48.690;12.362;2022-10-16T14:18:58;5.50;;;3.60;;
6671;SDS011;3372;48.690;12.362;2022-10-16T14:21:26;2.93;;;2.60;;
6671;SDS011;3372;48.690;12.362;2022-10-16T14:23:53;3.50;;;2.60;;
6671;SDS011;3372;48.690;12.362;2022-10-16T14:26:20;3.47;;;2.90;;
6671;SDS011;3372;48.690;12.362;2022-10-16T14:29:01;5.70;;;2.90;;
6671;SDS011;3372;48.690;12.362;2022-10-16T14:31:35;3.93;;;2.50;;
6671;SDS011;3372;48.690;12.362;2022-10-16T14:34:02;4.63;;;3.10;;
6671;SDS011;3372;48.690;12.362;2022-10-16T14:36:28;4.23;;;3.40;;
6671;SDS011;3372;48.690;12.362;2022-10-16T14:38:59;4.20;;;2.90;;
6671;SDS011;3372;48.690;12.362;2022-10-16T14:41:30;5.50;;;2.63;;
6671;SDS011;3372;48.690;12.362;2022-10-16T14:44:09;3.70;;;2.60;;
6671;SDS011;3372;48.690;12.362;2022-10-16T14:46:37;3.03;;;2.73;;
6671;SDS011;3372;48.690;12.362;2022-10-16T14:49:16;3.00;;;2.70;;
6671;SDS011;3372;48.690;12.362;2022-10-16T14:51:45;3.87;;;2.80;;
6671;SDS011;3372;48.690;12.362;2022-10-16T14:54:12;7.00;;;5.40;;
6671;SDS011;3372;48.690;12.362;2022-10-16T14:56:43;5.77;;;3.50;;
6671;SDS011;3372;48.690;12.362;2022-10-16T14:59:16;4.63;;;3.13;;
6671;SDS011;3372;48.690;12.362;2022-10-16T15:01:58;4.27;;;3.27;;
6671;SDS011;3372;48.690;12.362;2022-10-16T15:04:25;5.23;;;3.70;;
6671;SDS011;3372;48.690;12.362;2022-10-16T15:06:51;10.30;;;4.10;;
6671;SDS011;3372;48.690;12.362;2022-10-16T15:09:16;7.97;;;5.03;;
6671;SDS011;3372;48.690;12.362;2022-10-16T15:11:42;5.93;;;3.97;;
6671;SDS011;3372;48.690;12.362;2022-10-16T15:14:10;6.90;;;3.00;;
6671;SDS011;3372;48.690;12.362;2022-10-16T15:16:38;9.73;;;3.37;;
6671;SDS011;3372;48.690;12.362;2022-10-16T15:19:03;5.50;;;3.53;;
6671;SDS011;3372;48.690;12.362;2022-10-16T15:21:30;5.13;;;3.63;;
6671;SDS011;3372;48.690;12.362;2022-10-16T15:23:57;5.93;;;3.60;;
6671;SDS011;3372;48.690;12.362;2022-10-16T15:26:24;5.57;;;3.40;;
6671;SDS011;3372;48.690;12.362;2022-10-16T15:28:50;4.80;;;3.80;;
6671;SDS011;3372;48.690;12.362;2022-10-16T15:31:16;7.43;;;3.30;;
6671;SDS011;3372;48.690;12.362;2022-10-16T15:33:42;4.97;;;2.97;;
6671;SDS011;3372;48.690;12.362;2022-10-16T15:36:07;8.57;;;3.20;;
6671;SDS011;3372;48.690;12.362;2022-10-16T15:38:33;5.67;;;3.93;;
6671;SDS011;3372;48.690;12.362;2022-10-16T15:40:59;3.90;;;3.23;;
6671;SDS011;3372;48.690;12.362;2022-10-16T15:43:24;4.20;;;2.70;;
6671;SDS011;3372;48.690;12.362;2022-10-16T15:46:01;5.73;;;3.03;;
6671;SDS011;3372;48.690;12.362;2022-10-16T15:48:31;7.57;;;3.27;;
6671;SDS011;3372;48.690;12.362;2022-10-16T15:50:57;4.83;;;2.93;;
6671;SDS011;3372;48.690;12.362;2022-10-16T15:53:24;6.97;;;3.70;;
6671;SDS011;3372;48.690;12.362;2022-10-16T15:55:49;7.00;;;3.33;;
6671;SDS011;3372;48.690;12.362;2022-10-16T15:58:15;4.60;;;3.30;;
6671;SDS011;3372;48.690;12.362;2022-10-16T16:00:41;6.40;;;3.43;;
6671;SDS011;3372;48.690;12.362;2022-10-16T16:03:06;4.90;;;2.90;;
6671;SDS011;3372;48.690;12.362;2022-10-16T16:05:32;7.00;;;3.40;;
6671;SDS011;3372;48.690;12.362;2022-10-16T16:07:58;4.33;;;3.33;;
6671;SDS011;3372;48.690;12.362;2022-10-16T16:10:24;4.90;;;3.13;;
6671;SDS011;3372;48.690;12.362;2022-10-16T16:12:49;6.50;;;2.80;;
6671;SDS011;3372;48.690;12.362;2022-10-16T16:15:17;7.33;;;3.20;;
6671;SDS011;3372;48.690;12.362;2022-10-16T16:17:44;7.00;;;3.23;;
6671;SDS011;3372;48.690;12.362;2022-10-16T16:20:10;6.77;;;3.13;;
6671;SDS011;3372;48.690;12.362;2022-10-16T16:22:36;4.10;;;3.23;;
6671;SDS011;3372;48.690;12.362;2022-10-16T16:25:01;8.83;;;3.87;;
6671;SDS011;3372;48.690;12.362;2022-10-16T16:27:27;6.27;;;2.77;;
6671;SDS011;3372;48.690;12.362;2022-10-16T16:29:54;6.20;;;2.60;;
6671;SDS011;3372;48.690;12.362;2022-10-16T16:32:20;4.93;;;2.90;;
6671;SDS011;3372;48.690;12.362;2022-10-16T16:34:46;4.00;;;2.60;;
6671;SDS011;3372;48.690;12.362;2022-10-16T16:37:12;5.70;;;3.50;;
6671;SDS011;3372;48.690;12.362;2022-10-16T16:39:38;9.10;;;3.77;;
6671;SDS011;3372;48.690;12.362;2022-10-16T16:42:04;9.90;;;4.13;;
6671;SDS011;3372;48.690;12.362;2022-10-16T16:44:31;13.87;;;8.90;;
6671;SDS011;3372;48.690;12.362;2022-10-16T16:46:57;17.47;;;11.20;;
6671;SDS011;3372;48.690;12.362;2022-10-16T16:49:23;11.10;;;7.33;;
6671;SDS011;3372;48.690;12.362;2022-10-16T16:51:49;12.57;;;6.47;;
6671;SDS011;3372;48.690;12.362;2022-10-16T16:54:14;7.80;;;5.93;;
6671;SDS011;3372;48.690;12.362;2022-10-16T16:56:41;11.13;;;6.70;;
6671;SDS011;3372;48.690;12.362;2022-10-16T16:59:14;7.93;;;6.07;;
6671;SDS011;3372;48.690;12.362;2022-10-16T17:01:42;10.00;;;6.77;;
6671;SDS011;3372;48.690;12.362;2022-10-16T17:04:09;14.73;;;8.27;;
6671;SDS011;3372;48.690;12.362;2022-10-16T17:06:35;9.43;;;5.97;;
6671;SDS011;3372;48.690;12.362;2022-10-16T17:09:02;14.40;;;9.60;;
6671;SDS011;3372;48.690;12.362;2022-10-16T17:11:29;11.90;;;9.03;;
6671;SDS011;3372;48.690;12.362;2022-10-16T17:13:55;10.53;;;7.10;;
6671;SDS011;3372;48.690;12.362;2022-10-16T17:16:24;13.60;;;12.00;;